createdAt,value
2024-02-27T00:02:11.573Z,50.91
2024-02-27T00:04:39.000Z,50.72
2024-02-27T00:07:07.306Z,50.66
2024-02-27T00:12:19.857Z,50.99
2024-02-27T00:14:46.402Z,50.56
2024-02-27T00:17:12.904Z,50.82
2024-02-27T00:19:39.513Z,50.39
2024-02-27T00:22:06.092Z,50.75
2024-02-27T00:24:32.625Z,50.47
2024-02-27T00:27:00.182Z,50.88
2024-02-27T00:29:27.641Z,50.80
2024-02-27T00:31:54.140Z,50.39
2024-02-27T00:34:21.716Z,50.60
2024-02-27T00:36:49.185Z,50.70
2024-02-27T00:42:00.036Z,50.23
2024-02-27T00:44:27.525Z,50.13
2024-02-27T00:46:54.065Z,50.26
2024-02-27T00:49:21.874Z,50.48
2024-02-27T00:51:48.612Z,50.56
2024-02-27T00:57:00.120Z,50.44
2024-02-27T00:59:26.648Z,50.32
2024-02-27T01:01:53.152Z,50.22
2024-02-27T01:04:20.597Z,50.24
2024-02-27T01:06:48.139Z,50.11
2024-02-27T01:09:15.775Z,49.88
2024-02-27T01:11:42.361Z,49.87
2024-02-27T01:14:08.878Z,50.10
2024-02-27T01:16:36.357Z,50.01
2024-02-27T01:19:02.967Z,49.59
2024-02-27T01:21:30.481Z,50.07
2024-02-27T01:23:57.050Z,50.30
2024-02-27T01:26:23.584Z,49.65
2024-02-27T01:28:50.118Z,49.77
2024-02-27T01:31:17.571Z,49.76
2024-02-27T01:33:45.239Z,50.24
2024-02-27T01:36:12.863Z,49.52
2024-02-27T01:38:39.409Z,49.68
2024-02-27T01:41:06.908Z,49.87
2024-02-27T01:43:33.441Z,49.92
2024-02-27T01:46:00.324Z,51.58
2024-02-27T01:48:26.911Z,49.94
2024-02-27T01:50:54.448Z,50.02
2024-02-27T01:53:20.954Z,49.92
2024-02-27T01:55:47.481Z,50.06
2024-02-27T01:58:14.011Z,50.12
2024-02-27T02:00:40.584Z,49.89
2024-02-27T02:03:07.370Z,49.74
2024-02-27T02:05:33.933Z,50.10
2024-02-27T02:08:01.432Z,49.75
2024-02-27T02:10:27.943Z,50.08
2024-02-27T02:12:54.447Z,50.00
2024-02-27T02:15:21.030Z,50.48
2024-02-27T02:17:47.600Z,49.98
2024-02-27T02:20:15.043Z,50.29
2024-02-27T02:22:42.457Z,49.72
2024-02-27T02:25:08.961Z,50.67
2024-02-27T02:30:20.441Z,50.11
2024-02-27T02:32:47.014Z,49.74
2024-02-27T02:35:14.430Z,49.97
2024-02-27T02:37:40.896Z,49.75
2024-02-27T02:40:07.452Z,49.51
2024-02-27T02:45:19.184Z,49.57
2024-02-27T02:47:45.909Z,49.62
2024-02-27T02:50:13.395Z,50.01
2024-02-27T02:52:39.888Z,49.75
2024-02-27T02:55:06.400Z,49.67
2024-02-27T03:00:17.912Z,49.50
2024-02-27T03:02:44.421Z,49.39
2024-02-27T03:05:11.838Z,49.41
2024-02-27T03:07:38.340Z,49.61
2024-02-27T03:10:04.887Z,49.69
2024-02-27T03:15:17.140Z,49.70
2024-02-27T03:17:43.697Z,49.34
2024-02-27T03:20:10.228Z,49.02
2024-02-27T03:22:36.754Z,49.25
2024-02-27T03:25:03.288Z,49.11
2024-02-27T03:30:13.696Z,49.67
2024-02-27T03:32:40.259Z,49.28
2024-02-27T03:35:06.823Z,49.91
2024-02-27T03:37:33.316Z,49.77
2024-02-27T03:39:59.832Z,49.92
2024-02-27T03:45:12.295Z,49.35
2024-02-27T03:47:39.833Z,49.96
2024-02-27T03:50:07.625Z,49.73
2024-02-27T03:52:34.184Z,49.92
2024-02-27T03:55:01.641Z,49.72
2024-02-27T04:00:12.236Z,50.00
2024-02-27T04:02:38.758Z,50.11
2024-02-27T04:05:06.285Z,49.97
2024-02-27T04:07:32.808Z,49.80
2024-02-27T04:10:00.294Z,50.33
2024-02-27T04:15:11.615Z,49.96
2024-02-27T04:20:10.618Z,50.05
2024-02-27T04:22:38.150Z,49.87
2024-02-27T04:25:05.593Z,49.89
2024-02-27T04:30:17.011Z,50.16
2024-02-27T04:32:44.495Z,49.75
2024-02-27T04:35:11.031Z,49.65
2024-02-27T04:37:37.557Z,50.10
2024-02-27T04:40:04.960Z,49.98
2024-02-27T04:45:17.075Z,50.38
2024-02-27T04:47:43.649Z,50.26
2024-02-27T04:50:10.168Z,50.01
2024-02-27T04:52:36.657Z,50.21
2024-02-27T04:55:04.077Z,50.14
2024-02-27T05:00:15.798Z,50.57
2024-02-27T05:02:43.286Z,50.36
2024-02-27T05:05:09.832Z,50.57
2024-02-27T05:07:36.333Z,50.77
2024-02-27T05:10:02.861Z,50.96
2024-02-27T05:15:14.385Z,50.37
2024-02-27T05:17:40.933Z,50.23
2024-02-27T05:20:07.535Z,50.40
2024-02-27T05:22:34.076Z,50.16
2024-02-27T05:25:01.571Z,50.33
2024-02-27T05:30:12.100Z,49.98
2024-02-27T05:32:38.780Z,50.19
2024-02-27T05:35:05.495Z,49.90
2024-02-27T05:37:32.990Z,49.95
2024-02-27T05:39:59.511Z,49.98
2024-02-27T05:42:26.050Z,49.75
2024-02-27T05:44:52.584Z,49.78
2024-02-27T05:47:20.058Z,49.54
2024-02-27T05:49:47.562Z,49.44
2024-02-27T05:52:15.000Z,49.12
2024-02-27T05:54:42.546Z,49.59
2024-02-27T05:57:10.804Z,49.45
2024-02-27T05:59:37.347Z,49.69
2024-02-27T06:02:03.852Z,49.18
2024-02-27T06:04:30.431Z,49.18
2024-02-27T06:06:57.082Z,49.03
2024-02-27T06:09:24.649Z,48.93
2024-02-27T06:11:52.106Z,48.95
2024-02-27T06:14:19.531Z,48.96
2024-02-27T06:16:47.009Z,48.96
2024-02-27T06:19:14.541Z,48.83
2024-02-27T06:21:41.127Z,48.62
2024-02-27T06:24:07.843Z,48.96
2024-02-27T06:26:34.369Z,49.08
2024-02-27T06:29:01.822Z,48.75
2024-02-27T06:31:28.326Z,49.06
2024-02-27T06:33:55.912Z,48.74
2024-02-27T06:36:23.474Z,50.09
2024-02-27T06:38:49.999Z,49.28
2024-02-27T06:41:16.517Z,49.90
2024-02-27T06:43:43.002Z,49.03
2024-02-27T06:46:09.524Z,49.63
2024-02-27T06:48:36.276Z,48.86
2024-02-27T06:51:02.927Z,49.56
2024-02-27T06:53:29.476Z,49.19
2024-02-27T06:55:56.024Z,49.11
2024-02-27T06:58:22.591Z,49.35
2024-02-27T07:03:33.272Z,48.95
2024-02-27T07:06:00.002Z,49.51
2024-02-27T07:08:26.571Z,49.24
2024-02-27T07:10:54.027Z,49.37
2024-02-27T07:13:21.582Z,49.32
2024-02-27T07:18:33.249Z,48.95
2024-02-27T07:20:59.850Z,49.55
2024-02-27T07:23:27.256Z,49.19
2024-02-27T07:25:54.949Z,49.69
2024-02-27T07:28:27.197Z,49.18
2024-02-27T07:33:41.177Z,49.44
2024-02-27T07:36:07.807Z,49.41
2024-02-27T07:38:34.414Z,50.01
2024-02-27T07:41:00.964Z,49.23
2024-02-27T07:43:28.415Z,49.88
2024-02-27T07:48:39.816Z,49.66
2024-02-27T07:51:07.375Z,49.17
2024-02-27T07:53:34.870Z,49.61
2024-02-27T07:56:01.404Z,49.29
2024-02-27T07:58:28.878Z,50.04
2024-02-27T08:03:39.437Z,49.59
2024-02-27T08:06:06.124Z,49.98
2024-02-27T08:08:33.662Z,49.64
2024-02-27T08:11:00.265Z,49.68
2024-02-27T08:13:27.808Z,49.51
2024-02-27T08:18:39.685Z,49.53
2024-02-27T08:21:07.475Z,50.18
2024-02-27T08:23:34.972Z,49.34
2024-02-27T08:26:01.618Z,50.08
2024-02-27T08:28:29.074Z,49.56
2024-02-27T08:33:40.303Z,50.22
2024-02-27T08:36:08.221Z,50.59
2024-02-27T08:38:35.921Z,50.51
2024-02-27T08:41:02.704Z,50.67
2024-02-27T08:43:32.473Z,50.77
2024-02-27T08:48:46.448Z,50.95
2024-02-27T08:51:14.479Z,51.27
2024-02-27T08:53:41.113Z,50.96
2024-02-27T08:56:07.636Z,50.83
2024-02-27T08:58:34.204Z,50.88
2024-02-27T09:03:46.720Z,51.24
2024-02-27T09:06:14.342Z,51.00
2024-02-27T09:08:40.935Z,51.36
2024-02-27T09:11:07.499Z,51.00
2024-02-27T09:13:34.069Z,51.64
2024-02-27T09:18:44.845Z,51.00
2024-02-27T09:21:11.572Z,50.92
2024-02-27T09:23:39.084Z,49.29
2024-02-27T09:26:05.612Z,47.35
2024-02-27T09:28:32.120Z,46.31
2024-02-27T09:33:43.721Z,47.72
2024-02-27T09:36:10.402Z,47.56
2024-02-27T09:38:37.000Z,47.43
2024-02-27T09:41:03.521Z,45.25
2024-02-27T09:43:31.026Z,44.01
2024-02-27T09:48:41.405Z,44.58
2024-02-27T09:51:08.062Z,47.71
2024-02-27T09:53:34.607Z,48.19
2024-02-27T09:56:02.079Z,48.54
2024-02-27T09:58:29.571Z,48.23
2024-02-27T10:03:40.916Z,49.59
2024-02-27T10:06:07.592Z,49.31
2024-02-27T10:08:34.187Z,49.00
2024-02-27T10:11:00.934Z,50.20
2024-02-27T10:13:27.502Z,49.63
2024-02-27T10:18:39.252Z,49.49
2024-02-27T10:21:06.822Z,49.80
2024-02-27T10:23:36.933Z,50.99
2024-02-27T10:26:05.967Z,50.29
2024-02-27T10:28:32.480Z,50.06
2024-02-27T10:33:42.984Z,50.16
2024-02-27T10:36:10.892Z,50.07
2024-02-27T10:38:38.550Z,50.43
2024-02-27T10:41:05.054Z,49.75
2024-02-27T10:43:32.495Z,49.93
2024-02-27T10:45:59.942Z,49.67
2024-02-27T10:48:33.682Z,49.57
2024-02-27T10:51:05.391Z,50.17
2024-02-27T10:53:31.920Z,50.04
2024-02-27T10:55:58.423Z,49.93
2024-02-27T10:58:24.983Z,49.71
2024-02-27T11:00:51.714Z,49.32
2024-02-27T11:03:18.396Z,49.87
2024-02-27T11:05:45.017Z,50.11
2024-02-27T11:08:12.539Z,49.88
2024-02-27T11:10:39.043Z,49.79
2024-02-27T11:13:05.555Z,49.76
2024-02-27T11:15:33.042Z,49.39
2024-02-27T11:18:00.557Z,49.00
2024-02-27T11:20:27.103Z,49.44
2024-02-27T11:22:54.592Z,49.60
2024-02-27T11:25:22.082Z,49.72
2024-02-27T11:27:48.729Z,49.71
2024-02-27T11:30:16.289Z,49.50
2024-02-27T11:32:42.897Z,49.41
2024-02-27T11:35:10.721Z,49.46
2024-02-27T11:37:37.297Z,48.94
2024-02-27T11:40:04.810Z,49.04
2024-02-27T11:42:31.397Z,49.10
2024-02-27T11:44:57.927Z,49.58
2024-02-27T11:47:25.390Z,49.11
2024-02-27T11:49:52.015Z,48.77
2024-02-27T11:52:18.602Z,48.93
2024-02-27T11:54:45.282Z,48.74
2024-02-27T11:57:11.923Z,48.80
2024-02-27T11:59:38.510Z,48.81
2024-02-27T12:02:05.043Z,49.34
2024-02-27T12:04:31.621Z,49.29
2024-02-27T12:06:58.265Z,49.83
2024-02-27T12:09:24.871Z,49.77
2024-02-27T12:11:51.457Z,49.51
2024-02-27T12:14:19.052Z,49.10
2024-02-27T12:16:45.854Z,49.41
2024-02-27T12:21:57.456Z,48.98
2024-02-27T12:24:25.006Z,48.80
2024-02-27T12:26:51.553Z,48.80
2024-02-27T12:29:19.071Z,48.65
2024-02-27T12:31:45.606Z,48.59
2024-02-27T12:36:57.230Z,47.95
2024-02-27T12:39:23.791Z,48.37
2024-02-27T12:41:50.342Z,47.88
2024-02-27T12:44:17.788Z,47.94
2024-02-27T12:46:44.342Z,47.62
2024-02-27T12:51:55.855Z,47.92
2024-02-27T12:54:22.428Z,47.55
2024-02-27T12:56:49.001Z,47.81
2024-02-27T12:59:18.178Z,47.72
2024-02-27T13:01:45.300Z,47.43
2024-02-27T13:06:56.784Z,47.77
2024-02-27T13:09:24.336Z,47.72
2024-02-27T13:11:50.960Z,47.94
2024-02-27T13:14:18.426Z,47.81
2024-02-27T13:16:45.902Z,47.70
2024-02-27T13:22:13.125Z,47.91
2024-02-27T13:24:39.760Z,48.00
2024-02-27T13:27:07.268Z,48.23
2024-02-27T13:29:34.737Z,48.04
2024-02-27T13:32:01.415Z,48.34
2024-02-27T13:37:11.892Z,48.18
2024-02-27T13:39:39.396Z,48.12
2024-02-27T13:42:06.949Z,47.96
2024-02-27T13:44:33.528Z,48.17
2024-02-27T13:47:00.038Z,48.18
2024-02-27T13:52:18.122Z,48.50
2024-02-27T13:54:44.681Z,48.37
2024-02-27T13:57:12.233Z,48.65
2024-02-27T13:59:38.757Z,48.36
2024-02-27T14:02:05.286Z,48.38
2024-02-27T14:07:16.612Z,48.74
2024-02-27T14:09:44.664Z,48.53
2024-02-27T14:12:11.312Z,48.70
2024-02-27T14:14:37.880Z,48.63
2024-02-27T14:17:04.405Z,48.83
2024-02-27T14:22:31.157Z,48.46
2024-02-27T14:24:57.693Z,48.85
2024-02-27T14:27:24.250Z,49.19
2024-02-27T14:29:50.814Z,48.66
2024-02-27T14:32:17.385Z,48.73
2024-02-27T14:37:28.861Z,48.81
2024-02-27T14:39:56.254Z,48.57
2024-02-27T14:42:22.774Z,48.84
2024-02-27T14:44:50.262Z,48.49
2024-02-27T14:47:17.713Z,48.43
2024-02-27T14:52:37.164Z,48.62
2024-02-27T14:55:03.690Z,48.97
2024-02-27T14:57:31.209Z,48.55
2024-02-27T14:59:58.630Z,48.54
2024-02-27T15:02:25.178Z,45.55
2024-02-27T15:07:35.954Z,42.75
2024-02-27T15:10:03.402Z,42.33
2024-02-27T15:12:30.892Z,42.16
2024-02-27T15:14:57.502Z,42.32
2024-02-27T15:17:25.028Z,42.27
2024-02-27T15:22:52.172Z,41.42
2024-02-27T15:25:19.596Z,41.42
2024-02-27T15:27:46.224Z,40.77
2024-02-27T15:30:12.842Z,41.84
2024-02-27T15:32:39.410Z,40.49
2024-02-27T15:37:49.858Z,42.12
2024-02-27T15:40:17.328Z,43.05
2024-02-27T15:42:43.906Z,44.27
2024-02-27T15:45:11.448Z,45.47
2024-02-27T15:47:38.183Z,47.91
2024-02-27T15:53:06.191Z,49.66
2024-02-27T15:55:32.736Z,49.69
2024-02-27T15:57:59.340Z,49.28
2024-02-27T16:00:26.026Z,49.06
2024-02-27T16:02:52.589Z,49.48
2024-02-27T16:08:03.010Z,49.79
2024-02-27T16:10:29.549Z,49.73
2024-02-27T16:12:56.084Z,50.05
2024-02-27T16:15:22.619Z,50.19
2024-02-27T16:17:50.147Z,49.80
2024-02-27T16:23:18.214Z,49.69
2024-02-27T16:25:44.740Z,50.22
2024-02-27T16:28:12.203Z,50.10
2024-02-27T16:30:38.887Z,50.89
2024-02-27T16:33:05.576Z,51.07
2024-02-27T16:38:17.834Z,51.44
2024-02-27T16:40:44.365Z,51.48
2024-02-27T16:43:11.796Z,51.51
2024-02-27T16:45:38.338Z,51.54
2024-02-27T16:48:05.133Z,51.30
2024-02-27T16:53:24.217Z,51.69
2024-02-27T16:55:50.747Z,51.48
2024-02-27T16:58:18.144Z,51.28
2024-02-27T17:00:45.704Z,51.46
2024-02-27T17:03:13.226Z,51.57
2024-02-27T17:08:24.022Z,51.13
2024-02-27T17:10:50.623Z,51.91
2024-02-27T17:13:18.054Z,51.24
2024-02-27T17:15:45.551Z,51.59
2024-02-27T17:18:13.100Z,51.88
2024-02-27T17:23:40.205Z,51.60
2024-02-27T17:26:14.251Z,51.83
2024-02-27T17:28:40.778Z,51.38
2024-02-27T17:31:08.247Z,51.93
2024-02-27T17:33:35.564Z,51.34
2024-02-27T17:38:48.212Z,51.84
2024-02-27T17:41:15.708Z,51.80
2024-02-27T17:43:44.791Z,51.67
2024-02-27T17:46:11.310Z,51.75
2024-02-27T17:48:38.699Z,51.46
2024-02-27T17:53:50.477Z,47.96
2024-02-27T17:56:24.242Z,46.68
2024-02-27T17:58:50.757Z,46.54
2024-02-27T18:01:18.268Z,45.86
2024-02-27T18:03:45.833Z,46.71
2024-02-27T18:08:58.429Z,46.29
2024-02-27T18:11:24.970Z,46.70
2024-02-27T18:13:51.493Z,45.81
2024-02-27T18:16:18.937Z,47.10
2024-02-27T18:18:45.627Z,45.29
2024-02-27T18:24:03.258Z,44.35
2024-02-27T18:26:29.842Z,44.46
2024-02-27T18:28:57.269Z,44.64
2024-02-27T18:31:23.791Z,44.49
2024-02-27T18:33:50.329Z,45.73
2024-02-27T18:39:02.027Z,49.03
2024-02-27T18:41:29.489Z,49.18
2024-02-27T18:43:56.052Z,49.82
2024-02-27T18:46:22.574Z,49.61
2024-02-27T18:48:49.149Z,50.22
2024-02-27T18:56:43.772Z,50.61
2024-02-27T18:59:10.323Z,49.92
2024-02-27T19:01:36.910Z,50.72
2024-02-27T19:04:03.457Z,50.30
2024-02-27T19:09:16.162Z,50.55
2024-02-27T19:11:43.116Z,50.74
2024-02-27T19:14:10.736Z,51.29
2024-02-27T19:16:39.025Z,51.60
2024-02-27T19:19:06.686Z,51.13
2024-02-27T19:24:33.338Z,51.31
2024-02-27T19:27:00.890Z,51.09
2024-02-27T19:29:27.459Z,50.97
2024-02-27T19:31:53.996Z,51.24
2024-02-27T19:34:21.564Z,51.60
2024-02-27T19:39:34.643Z,51.20
2024-02-27T19:42:02.091Z,51.56
2024-02-27T19:44:29.530Z,50.89
2024-02-27T19:46:56.968Z,50.71
2024-02-27T19:49:23.553Z,50.77
2024-02-27T19:54:52.335Z,50.69
2024-02-27T19:57:19.827Z,50.29
2024-02-27T19:59:46.643Z,50.85
2024-02-27T20:02:13.172Z,50.31
2024-02-27T20:04:43.675Z,50.69
2024-02-27T20:09:56.145Z,50.33
2024-02-27T20:12:22.704Z,50.08
2024-02-27T20:14:50.198Z,50.30
2024-02-27T20:17:17.684Z,50.08
2024-02-27T20:19:45.317Z,50.09
2024-02-27T20:25:12.282Z,49.96
2024-02-27T20:27:38.845Z,50.48
2024-02-27T20:30:06.427Z,49.59
2024-02-27T20:32:34.046Z,50.06
2024-02-27T20:35:01.539Z,50.17
2024-02-27T20:40:13.750Z,49.72
2024-02-27T20:42:40.380Z,50.26
2024-02-27T20:45:07.915Z,49.68
2024-02-27T20:47:35.416Z,50.12
2024-02-27T20:50:01.924Z,49.92
2024-02-27T20:55:21.320Z,49.81
2024-02-27T20:57:48.944Z,49.87
2024-02-27T21:00:15.543Z,49.65
2024-02-27T21:02:43.917Z,49.62
2024-02-27T21:05:10.477Z,50.22
2024-02-27T21:10:22.078Z,47.32
2024-02-27T21:12:49.652Z,45.88
2024-02-27T21:15:16.226Z,46.45
2024-02-27T21:17:42.827Z,45.37
2024-02-27T21:20:09.432Z,45.40
2024-02-27T21:22:36.895Z,43.89
2024-02-27T21:25:05.129Z,44.07
2024-02-27T21:27:39.397Z,43.52
2024-02-27T21:30:06.880Z,43.30
2024-02-27T21:32:34.588Z,43.47
2024-02-27T21:35:01.124Z,42.57
2024-02-27T21:37:27.691Z,42.96
2024-02-27T21:39:55.311Z,42.67
2024-02-27T21:42:22.098Z,43.36
2024-02-27T21:44:48.892Z,42.57
2024-02-27T21:47:16.343Z,42.61
2024-02-27T21:49:42.890Z,42.14
2024-02-27T21:52:10.456Z,42.22
2024-02-27T21:54:38.738Z,42.37
2024-02-27T21:57:06.189Z,41.64
2024-02-27T21:59:40.351Z,41.88
2024-02-27T22:02:08.561Z,41.77
2024-02-27T22:04:36.047Z,42.51
2024-02-27T22:07:02.575Z,42.12
2024-02-27T22:09:29.126Z,42.05
2024-02-27T22:11:56.606Z,41.63
2024-02-27T22:14:24.081Z,42.53
2024-02-27T22:16:51.535Z,41.84
2024-02-27T22:19:18.976Z,42.17
2024-02-27T22:21:48.779Z,42.11
2024-02-27T22:24:15.381Z,42.29
2024-02-27T22:26:42.881Z,45.04
2024-02-27T22:29:16.376Z,46.85
2024-02-27T22:31:42.905Z,47.95
2024-02-27T22:34:09.547Z,48.42
2024-02-27T22:36:36.292Z,48.38
2024-02-27T22:39:04.252Z,48.68
2024-02-27T22:41:31.957Z,48.94
2024-02-27T22:43:59.427Z,48.90
2024-02-27T22:46:26.087Z,48.78
2024-02-27T22:48:52.645Z,48.26
2024-02-27T22:51:19.255Z,48.20
2024-02-27T22:53:46.759Z,48.51
2024-02-27T22:56:19.363Z,48.69
2024-02-27T22:58:45.876Z,48.67
2024-02-27T23:01:12.467Z,47.55
2024-02-27T23:03:39.110Z,46.90
2024-02-27T23:06:06.637Z,47.96
2024-02-27T23:08:33.148Z,46.69
2024-02-27T23:13:45.912Z,44.66
2024-02-27T23:16:12.588Z,44.96
2024-02-27T23:18:40.122Z,44.09
2024-02-27T23:21:07.644Z,43.50
2024-02-27T23:23:41.394Z,43.75
2024-02-27T23:26:07.912Z,43.56
2024-02-27T23:28:35.460Z,42.75
2024-02-27T23:31:02.919Z,43.49
2024-02-27T23:33:30.432Z,43.64
2024-02-27T23:35:56.995Z,43.93
2024-02-27T23:38:24.452Z,43.95
2024-02-27T23:43:36.827Z,43.99
2024-02-27T23:46:05.056Z,43.31
2024-02-27T23:48:31.618Z,43.18
2024-02-27T23:50:58.172Z,43.69
2024-02-27T23:53:24.706Z,44.07
2024-02-27T23:58:53.384Z,44.85
